Shelton, WA (98584)

1:32 AM PDT on October 26, 2014 (GMT -0700)
Miller Point, Shorecrest | Change Station
CLOSE
Current Station
Personal Weather Station
Location: Shelton, WA
Elevation: 20 ft
Nearby Weather Stations

Elev 20 ft 47.21 °N, 123.06 °W | Updated 14 minutes ago

Scattered Clouds
Scattered Clouds
50.7 °F
Feels Like 50.7 °F
N
2.2
Wind Variable Wind from West

Today
High -- | Low -- °F
--% Chance of Precip.
Yesterday
High -- | Low -- °F
Precip. -- in
7:46 AM 6:05 PM
Waxing Crescent, 6% visible
Pressure 29.79 in
Visibility 10.0 miles
Clouds Scattered Clouds 4400 ft
Dew Point 48 °F
Humidity 91%
Rainfall 0.00 in
Snow Depth Not available.
UV 0 out of 12
Pollen .40 out of 12
PM2.5 Good
Flu Activity Sporadic
METAR KSHN 260753Z AUTO 21008KT 10SM SCT044 09/07 A2978 RMK AO2 RAB33E44 SLP086 P0001 T00890072 401390078 TSNO

More Conditions Fewer Conditions

Pressure 29.79 in
Visibility 10.0 miles
Clouds Scattered Clouds 4400 ft
Dew Point 48 °F
Humidity 91%
Rainfall 0.00 in
Snow Depth Not available.
UV 0 out of 12
Pollen .40 out of 12
PM2.5 Good
Flu Activity Sporadic
METAR KSHN 260753Z AUTO 21008KT 10SM SCT044 09/07 A2978 RMK AO2 RAB33E44 SLP086 P0001 T00890072 401390078 TSNO

More Conditions Fewer Conditions

10-Day Weather Forecast

Almanac

Astronomy

Oct. 26, 2014 Rise Set
Actual Time 7:46 AM PDT 6:05 PM PDT
Civil Twilight 7:15 AM PDT 6:36 PM PDT
Nautical Twilight 6:39 AM PDT 7:12 PM PDT
Astronomical Twilight 6:04 AM PDT 7:47 PM PDT
Moon 10:37 AM PDT 8:13 PM PDT
Length of Visible Light 11h 21m
Length of Day
10h 18m
Tomorrow will be 3m 7s shorter.
Waxing Crescent, 6% of the Moon is Illuminated
Today
Waxing Crescent
Oct 30
First Quarter
Nov 6
Full
Nov 14
Last Quarter
Nov 22
New

Today's Extremes

State Highs State Lows

Community

WunderPhotos

Upload Photos

1,765,127 photos uploaded!

Nearby

Air Quality

  Air Quality AQ Index Pollutant
Yesterday Good
PM2.5
Current Good
PM2.5

Snow Depth

Station Depth Elevation
Mount Crag 0 in 4050 ft
Dungeness 0 in 4100 ft
Waterhole 1 in 5000 ft
Burnt Mountain 0 in 4200 ft
Rex River 0 in 4000 ft

Earthquake Activity

City Distance Mag. Time & Date
Birch Bay, Washington 112 miles 2.8 3:02 AM PDT
2014-10-24
Minimum magnitude displayed is 2.5.

Coastal Water Temperatures

Place Temperature
Port Townsend, WA 52.0 °F
Seattle, WA 55.0 °F
Friday Harbor, WA 51.1 °F
Tacoma, WA 54.0 °F

Nearby Weather Stations